createdAt,value
2022-10-27T00:00:37.906Z,13.70
2022-10-27T00:03:05.509Z,13.68
2022-10-27T00:05:33.974Z,13.69
2022-10-27T00:08:01.166Z,13.65
2022-10-27T00:10:30.082Z,13.60
2022-10-27T00:12:57.289Z,13.63
2022-10-27T00:15:24.523Z,13.60
2022-10-27T00:17:51.798Z,13.58
2022-10-27T00:20:19.120Z,13.53
2022-10-27T00:22:46.358Z,13.52
2022-10-27T00:25:13.595Z,13.49
2022-10-27T00:27:42.297Z,13.46
2022-10-27T00:30:10.648Z,13.41
2022-10-27T00:32:37.940Z,13.38
2022-10-27T00:35:06.066Z,13.35
2022-10-27T00:37:33.283Z,13.36
2022-10-27T00:40:00.526Z,13.37
2022-10-27T00:42:27.761Z,13.39
2022-10-27T00:44:56.403Z,13.38
2022-10-27T00:47:25.810Z,13.41
2022-10-27T00:50:01.277Z,13.29
2022-10-27T00:52:34.214Z,13.34
2022-10-27T00:55:06.895Z,13.28
2022-10-27T00:57:35.356Z,13.25
2022-10-27T01:00:07.053Z,13.24
2022-10-27T01:02:35.703Z,13.28
2022-10-27T01:05:08.193Z,13.29
2022-10-27T01:07:36.145Z,13.36
2022-10-27T01:10:04.251Z,13.48
2022-10-27T01:12:32.484Z,13.55
2022-10-27T01:14:59.994Z,13.53
2022-10-27T01:17:41.757Z,13.52
2022-10-27T01:20:43.014Z,13.53
2022-10-27T01:23:20.392Z,13.64
2022-10-27T01:26:17.421Z,13.61
2022-10-27T01:29:20.238Z,13.50
2022-10-27T01:34:34.622Z,13.44
2022-10-27T01:37:11.118Z,13.45
2022-10-27T01:39:42.819Z,13.40
2022-10-27T01:42:14.783Z,13.36
2022-10-27T01:44:47.802Z,13.34
2022-10-27T01:47:17.030Z,13.34
2022-10-27T01:49:44.323Z,13.27
2022-10-27T01:52:40.481Z,13.21
2022-10-27T01:55:12.816Z,13.23
2022-10-27T01:57:52.454Z,13.10
2022-10-27T02:00:19.824Z,13.19
2022-10-27T02:02:53.179Z,13.23
2022-10-27T02:05:27.018Z,13.23
2022-10-27T02:08:00.494Z,13.37
2022-10-27T02:10:33.982Z,13.38
2022-10-27T02:13:03.264Z,13.32
2022-10-27T02:15:33.539Z,13.31
2022-10-27T02:18:05.525Z,13.30
2022-10-27T02:20:35.760Z,13.31
2022-10-27T02:23:06.634Z,13.30
2022-10-27T02:25:39.942Z,13.22
2022-10-27T02:28:09.158Z,13.21
2022-10-27T02:30:39.236Z,13.15
2022-10-27T02:33:08.428Z,13.27
2022-10-27T02:35:36.211Z,13.20
2022-10-27T02:38:04.249Z,13.10
2022-10-27T02:40:32.139Z,13.05
2022-10-27T02:42:59.347Z,12.95
2022-10-27T02:45:26.574Z,12.94
2022-10-27T02:47:53.762Z,12.93
2022-10-27T02:50:22.448Z,12.95
2022-10-27T02:52:49.817Z,12.90
2022-10-27T02:55:17.230Z,12.92
2022-10-27T02:57:45.749Z,12.93
2022-10-27T03:00:14.272Z,12.97
2022-10-27T03:02:41.568Z,12.87
2022-10-27T03:05:09.090Z,12.93
2022-10-27T03:07:37.644Z,12.94
2022-10-27T03:10:05.644Z,12.92
2022-10-27T03:12:32.905Z,12.94
2022-10-27T03:15:00.154Z,12.97
2022-10-27T03:17:27.396Z,12.91
2022-10-27T03:19:54.700Z,12.91
2022-10-27T03:22:21.999Z,12.93
2022-10-27T03:24:50.514Z,13.00
2022-10-27T03:27:17.908Z,12.94
2022-10-27T03:32:17.196Z,12.96
2022-10-27T03:34:44.437Z,13.02
2022-10-27T03:37:11.698Z,12.95
2022-10-27T03:39:38.997Z,12.93
2022-10-27T03:42:07.561Z,12.87
2022-10-27T03:44:34.910Z,12.88
2022-10-27T03:47:02.154Z,12.84
2022-10-27T03:49:29.439Z,12.86
2022-10-27T03:51:56.613Z,12.94
2022-10-27T03:54:23.863Z,13.01
2022-10-27T03:56:51.195Z,13.04
2022-10-27T03:59:19.878Z,13.09
2022-10-27T04:01:47.380Z,13.07
2022-10-27T04:04:14.874Z,13.07
2022-10-27T04:06:42.344Z,13.05
2022-10-27T04:09:09.524Z,13.12
2022-10-27T04:11:36.747Z,13.09
2022-10-27T04:14:03.941Z,13.11
2022-10-27T04:16:32.695Z,13.04
2022-10-27T04:18:59.842Z,13.08
2022-10-27T04:21:27.917Z,13.03
2022-10-27T04:23:55.114Z,12.94
2022-10-27T04:26:22.490Z,13.00
2022-10-27T04:28:49.714Z,12.94
2022-10-27T04:31:16.933Z,12.96
2022-10-27T04:33:45.566Z,12.93
2022-10-27T04:36:12.795Z,12.92
2022-10-27T04:38:40.063Z,13.05
2022-10-27T04:41:07.344Z,13.01
2022-10-27T04:43:34.680Z,13.01
2022-10-27T04:46:01.878Z,13.07
2022-10-27T04:48:29.091Z,13.09
2022-10-27T04:50:57.701Z,13.11
2022-10-27T04:53:24.897Z,13.13
2022-10-27T04:55:52.330Z,13.11
2022-10-27T04:58:19.645Z,13.07
2022-10-27T05:00:47.333Z,13.04
2022-10-27T05:03:14.746Z,13.01
2022-10-27T05:05:42.044Z,13.01
2022-10-27T05:08:10.959Z,13.03
2022-10-27T05:10:38.291Z,13.01
2022-10-27T05:13:05.681Z,13.00
2022-10-27T05:15:33.118Z,12.98
2022-10-27T05:18:00.457Z,12.95
2022-10-27T05:20:27.696Z,12.93
2022-10-27T05:22:54.973Z,12.89
2022-10-27T05:25:23.674Z,12.95
2022-10-27T05:27:51.137Z,12.87
2022-10-27T05:30:18.880Z,12.89
2022-10-27T05:32:47.630Z,12.81
2022-10-27T05:35:15.448Z,12.78
2022-10-27T05:37:45.914Z,12.71
2022-10-27T05:40:13.663Z,12.69
2022-10-27T05:42:49.365Z,12.67
2022-10-27T05:45:16.925Z,12.66
2022-10-27T05:47:44.145Z,12.65
2022-10-27T05:50:11.376Z,12.67
2022-10-27T05:52:38.801Z,12.77
2022-10-27T05:55:06.916Z,12.79
2022-10-27T05:57:34.156Z,12.83
2022-10-27T06:00:02.803Z,12.90
2022-10-27T06:02:31.605Z,12.95
2022-10-27T06:04:58.923Z,13.00
2022-10-27T06:07:26.158Z,13.03
2022-10-27T06:09:53.346Z,13.06
2022-10-27T06:12:20.551Z,13.06
2022-10-27T06:14:47.785Z,13.08
2022-10-27T06:17:16.505Z,13.08
2022-10-27T06:19:43.687Z,13.10
2022-10-27T06:22:16.314Z,13.10
2022-10-27T06:24:44.021Z,13.12
2022-10-27T06:27:11.317Z,13.15
2022-10-27T06:29:38.503Z,13.16
2022-10-27T06:32:05.734Z,13.13
2022-10-27T06:34:34.442Z,13.09
2022-10-27T06:37:01.743Z,13.07
2022-10-27T06:39:29.050Z,13.08
2022-10-27T06:41:56.434Z,13.06
2022-10-27T06:44:24.204Z,13.05
2022-10-27T06:46:51.935Z,13.13
2022-10-27T06:49:19.101Z,13.08
2022-10-27T06:51:47.608Z,13.06
2022-10-27T06:54:14.863Z,13.02
2022-10-27T06:56:42.132Z,13.02
2022-10-27T06:59:09.540Z,12.99
2022-10-27T07:01:36.802Z,12.95
2022-10-27T07:04:04.277Z,12.98
2022-10-27T07:06:32.676Z,12.98
2022-10-27T07:09:03.397Z,12.98
2022-10-27T07:11:33.108Z,12.97
2022-10-27T07:14:00.332Z,12.98
2022-10-27T07:16:30.223Z,12.91
2022-10-27T07:19:01.736Z,12.94
2022-10-27T07:21:29.279Z,12.96
2022-10-27T07:23:56.471Z,12.99
2022-10-27T07:26:25.124Z,12.98
2022-10-27T07:28:52.380Z,13.01
2022-10-27T07:31:19.608Z,13.07
2022-10-27T07:33:46.895Z,13.09
2022-10-27T07:36:14.146Z,13.12
2022-10-27T07:38:41.390Z,13.22
2022-10-27T07:41:08.562Z,13.28
2022-10-27T07:43:37.165Z,13.34
2022-10-27T07:46:04.339Z,13.34
2022-10-27T07:48:31.605Z,13.44
2022-10-27T07:50:58.768Z,13.52
2022-10-27T07:53:26.046Z,13.59
2022-10-27T07:55:53.222Z,13.69
2022-10-27T07:58:20.471Z,13.79
2022-10-27T08:00:49.033Z,13.95
2022-10-27T08:03:18.386Z,14.02
2022-10-27T08:05:45.988Z,14.10
2022-10-27T08:08:13.473Z,14.28
2022-10-27T08:10:42.489Z,14.37
2022-10-27T08:13:10.804Z,14.51
2022-10-27T08:15:39.866Z,14.58
2022-10-27T08:18:09.973Z,14.76
2022-10-27T08:20:39.369Z,14.88
2022-10-27T08:23:08.333Z,14.91
2022-10-27T08:25:35.770Z,15.10
2022-10-27T08:28:03.166Z,14.99
2022-10-27T08:30:33.591Z,15.11
2022-10-27T08:33:03.829Z,15.20
2022-10-27T08:35:33.732Z,15.32
2022-10-27T08:38:02.474Z,15.45
2022-10-27T08:40:37.606Z,15.60
2022-10-27T08:43:23.444Z,15.70
2022-10-27T08:45:58.431Z,15.73
2022-10-27T08:48:27.512Z,15.70
2022-10-27T08:50:56.143Z,15.84
2022-10-27T08:53:29.111Z,15.79
2022-10-27T08:56:04.392Z,15.77
2022-10-27T08:58:36.653Z,15.89
2022-10-27T09:01:12.899Z,16.10
2022-10-27T09:03:54.876Z,16.14
2022-10-27T09:06:29.303Z,16.28
2022-10-27T09:09:02.678Z,16.45
2022-10-27T09:11:41.267Z,16.61
2022-10-27T09:14:32.631Z,16.79
2022-10-27T09:17:03.783Z,16.89
2022-10-27T09:19:38.595Z,17.10
2022-10-27T09:22:12.807Z,17.27
2022-10-27T09:24:40.040Z,17.24
2022-10-27T09:27:09.147Z,17.41
2022-10-27T09:29:37.332Z,17.32
2022-10-27T09:32:12.520Z,17.13
2022-10-27T09:34:44.253Z,17.30
2022-10-27T09:37:15.909Z,17.37
2022-10-27T09:39:48.466Z,17.33
2022-10-27T09:42:16.681Z,17.54
2022-10-27T09:44:54.258Z,17.56
2022-10-27T09:49:52.175Z,18.14
2022-10-27T09:52:25.836Z,18.52
2022-10-27T09:54:55.718Z,18.70
2022-10-27T09:57:27.460Z,19.36
2022-10-27T09:59:59.311Z,19.30
2022-10-27T10:02:29.357Z,19.12
2022-10-27T10:04:57.746Z,19.29
2022-10-27T10:07:32.991Z,19.84
2022-10-27T10:10:07.074Z,20.69
2022-10-27T10:12:34.329Z,19.94
2022-10-27T10:15:22.618Z,19.18
2022-10-27T10:17:57.917Z,19.26
2022-10-27T10:20:33.334Z,19.70
2022-10-27T10:23:04.318Z,20.06
2022-10-27T10:25:33.520Z,20.14
2022-10-27T10:28:03.164Z,20.08
2022-10-27T10:30:33.132Z,21.11
2022-10-27T10:33:01.264Z,21.41
2022-10-27T10:35:44.224Z,21.39
2022-10-27T10:38:32.969Z,20.88
2022-10-27T10:41:02.485Z,21.16
2022-10-27T10:43:30.733Z,21.55
2022-10-27T10:45:58.542Z,21.42
2022-10-27T10:48:42.609Z,21.46
2022-10-27T10:51:10.969Z,21.61
2022-10-27T10:53:47.947Z,21.88
2022-10-27T10:56:23.848Z,22.03
2022-10-27T10:58:56.785Z,22.41
2022-10-27T11:01:24.394Z,22.39
2022-10-27T11:03:55.228Z,22.16
2022-10-27T11:06:22.579Z,22.15
2022-10-27T11:08:57.897Z,22.31
2022-10-27T11:11:31.441Z,21.73
2022-10-27T11:14:01.832Z,21.23
2022-10-27T11:16:31.866Z,21.23
2022-10-27T11:19:07.625Z,21.07
2022-10-27T11:21:40.335Z,21.19
2022-10-27T11:24:15.857Z,20.83
2022-10-27T11:27:00.990Z,21.42
2022-10-27T11:29:38.653Z,21.59
2022-10-27T11:32:12.669Z,21.47
2022-10-27T11:34:50.929Z,21.58
2022-10-27T11:37:25.728Z,21.23
2022-10-27T11:40:02.656Z,20.75
2022-10-27T11:42:38.029Z,20.60
2022-10-27T11:45:11.304Z,21.17
2022-10-27T11:47:43.354Z,20.89
2022-10-27T11:50:16.480Z,20.84
2022-10-27T11:52:46.886Z,20.50
2022-10-27T11:55:18.417Z,20.25
2022-10-27T11:57:55.161Z,20.12
2022-10-27T12:00:24.800Z,20.54
2022-10-27T12:03:17.220Z,20.80
2022-10-27T12:05:48.670Z,20.86
2022-10-27T12:11:15.208Z,21.80
2022-10-27T12:13:49.680Z,22.30
2022-10-27T12:16:23.471Z,22.25
2022-10-27T12:18:57.478Z,22.42
2022-10-27T12:21:27.782Z,21.81
2022-10-27T12:23:58.972Z,21.34
2022-10-27T12:26:33.236Z,21.14
2022-10-27T12:29:03.545Z,21.02
2022-10-27T12:31:34.415Z,21.33
2022-10-27T12:34:04.418Z,21.63
2022-10-27T12:36:41.121Z,21.56
2022-10-27T12:39:19.171Z,21.89
2022-10-27T12:41:54.583Z,21.74
2022-10-27T12:44:31.919Z,21.47
2022-10-27T12:47:12.487Z,21.33
2022-10-27T12:49:47.609Z,21.11
2022-10-27T12:52:19.339Z,20.82
2022-10-27T12:55:06.148Z,20.76
2022-10-27T12:57:49.451Z,20.80
2022-10-27T13:00:18.856Z,20.72
2022-10-27T13:03:05.635Z,20.81
2022-10-27T13:05:49.959Z,20.87
2022-10-27T13:08:50.146Z,20.81
2022-10-27T13:11:53.482Z,20.92
2022-10-27T13:14:44.263Z,21.50
2022-10-27T13:17:18.356Z,21.47
2022-10-27T13:19:53.977Z,21.09
2022-10-27T13:22:28.252Z,20.99
2022-10-27T13:25:02.906Z,20.88
2022-10-27T13:27:38.885Z,21.03
2022-10-27T13:30:16.359Z,20.83
2022-10-27T13:32:52.413Z,20.70
2022-10-27T13:35:37.591Z,20.67
2022-10-27T13:38:22.649Z,20.66
2022-10-27T13:40:51.686Z,20.87
2022-10-27T13:43:42.478Z,20.74
2022-10-27T13:46:11.113Z,20.90
2022-10-27T13:48:46.233Z,21.09
2022-10-27T13:52:02.836Z,21.92
2022-10-27T13:54:54.569Z,21.78
2022-10-27T13:57:44.475Z,21.36
2022-10-27T14:00:14.705Z,21.24
2022-10-27T14:02:57.700Z,21.70
2022-10-27T14:05:31.671Z,22.29
2022-10-27T14:08:00.091Z,22.52
2022-10-27T14:10:28.771Z,22.84
2022-10-27T14:12:57.413Z,23.46
2022-10-27T14:15:26.912Z,23.41
2022-10-27T14:17:56.955Z,23.45
2022-10-27T14:20:29.910Z,23.78
2022-10-27T14:23:04.603Z,23.84
2022-10-27T14:25:32.775Z,23.06
2022-10-27T14:28:04.581Z,22.45
2022-10-27T14:30:31.956Z,22.25
2022-10-27T14:33:15.735Z,21.51
2022-10-27T14:35:43.348Z,21.06
2022-10-27T14:38:15.320Z,20.98
2022-10-27T14:40:42.882Z,20.79
2022-10-27T14:43:18.666Z,20.56
2022-10-27T14:45:54.561Z,20.38
2022-10-27T14:48:28.738Z,20.22
2022-10-27T14:50:57.331Z,20.20
2022-10-27T14:53:30.795Z,20.06
2022-10-27T14:56:20.126Z,19.99
2022-10-27T14:58:54.859Z,20.11
2022-10-27T15:01:35.403Z,20.50
2022-10-27T15:04:16.252Z,20.90
2022-10-27T15:09:23.012Z,20.49
2022-10-27T15:11:50.327Z,20.25
2022-10-27T15:14:17.640Z,20.05
2022-10-27T15:16:46.375Z,19.91
2022-10-27T15:19:16.820Z,19.88
2022-10-27T15:21:48.364Z,19.74
2022-10-27T15:24:20.166Z,19.57
2022-10-27T15:26:48.669Z,19.49
2022-10-27T15:29:18.102Z,19.40
2022-10-27T15:31:46.135Z,19.35
2022-10-27T15:37:25.707Z,19.13
2022-10-27T15:39:53.659Z,18.97
2022-10-27T15:42:23.104Z,18.85
2022-10-27T15:44:50.824Z,18.74
2022-10-27T15:47:40.556Z,18.65
2022-10-27T15:50:25.174Z,18.56
2022-10-27T15:53:04.902Z,18.54
2022-10-27T15:55:37.014Z,18.44
2022-10-27T15:58:29.520Z,18.36
2022-10-27T16:01:09.246Z,18.30
2022-10-27T16:03:39.736Z,18.29
2022-10-27T16:06:26.489Z,18.28
2022-10-27T16:08:55.607Z,18.34
2022-10-27T16:11:23.668Z,18.37
2022-10-27T16:13:54.876Z,18.39
2022-10-27T16:16:22.867Z,18.36
2022-10-27T16:18:50.648Z,18.33
2022-10-27T16:21:23.713Z,18.23
2022-10-27T16:23:54.299Z,18.16
2022-10-27T16:26:25.529Z,18.07
2022-10-27T16:28:57.018Z,18.03
2022-10-27T16:31:27.313Z,17.99
2022-10-27T16:33:54.640Z,17.95
2022-10-27T16:36:21.884Z,17.94
2022-10-27T16:38:49.100Z,17.88
2022-10-27T16:41:23.776Z,17.90
2022-10-27T16:43:51.437Z,17.90
2022-10-27T16:46:18.595Z,17.91
2022-10-27T16:48:45.893Z,17.92
2022-10-27T16:51:15.056Z,17.90
2022-10-27T16:53:42.812Z,17.94
2022-10-27T16:56:11.436Z,17.95
2022-10-27T16:58:41.637Z,17.98
2022-10-27T17:01:11.413Z,17.96
2022-10-27T17:03:38.899Z,17.94
2022-10-27T17:06:06.727Z,17.90
2022-10-27T17:08:35.666Z,17.85
2022-10-27T17:11:07.231Z,17.89
2022-10-27T17:13:36.382Z,17.90
2022-10-27T17:16:06.909Z,17.91
2022-10-27T17:18:34.243Z,17.93
2022-10-27T17:21:02.019Z,17.91
2022-10-27T17:23:30.081Z,17.93
2022-10-27T17:26:01.112Z,17.83
2022-10-27T17:28:28.376Z,17.76
2022-10-27T17:30:59.641Z,17.73
2022-10-27T17:33:28.450Z,17.74
2022-10-27T17:35:56.250Z,17.73
2022-10-27T17:38:23.653Z,17.69
2022-10-27T17:40:52.066Z,17.67
2022-10-27T17:43:19.542Z,17.68
2022-10-27T17:45:57.590Z,17.68
2022-10-27T17:48:24.883Z,17.67
2022-10-27T17:50:53.459Z,17.60
2022-10-27T17:53:20.729Z,17.62
2022-10-27T17:55:47.947Z,17.61
2022-10-27T17:58:15.160Z,17.64
2022-10-27T18:00:42.520Z,17.63
2022-10-27T18:03:09.759Z,17.59
2022-10-27T18:05:37.009Z,17.59
2022-10-27T18:08:05.615Z,17.56
2022-10-27T18:10:33.576Z,17.55
2022-10-27T18:13:01.449Z,17.53
2022-10-27T18:15:35.890Z,17.55
2022-10-27T18:18:03.595Z,17.55
2022-10-27T18:20:32.841Z,17.52
2022-10-27T18:23:00.207Z,17.49
2022-10-27T18:25:29.156Z,17.47
2022-10-27T18:27:56.391Z,17.44
2022-10-27T18:30:23.888Z,17.38
2022-10-27T18:32:51.324Z,17.36
2022-10-27T18:35:18.890Z,17.32
2022-10-27T18:37:46.217Z,17.26
2022-10-27T18:40:13.777Z,17.23
2022-10-27T18:42:42.370Z,17.19
2022-10-27T18:45:09.736Z,17.22
2022-10-27T18:47:37.101Z,17.20
2022-10-27T18:50:08.124Z,17.13
2022-10-27T18:52:37.546Z,17.14
2022-10-27T18:55:05.129Z,17.12
2022-10-27T18:57:32.503Z,17.06
2022-10-27T19:00:01.066Z,17.02
2022-10-27T19:02:28.385Z,17.00
2022-10-27T19:04:55.747Z,16.95
2022-10-27T19:07:22.970Z,16.97
2022-10-27T19:09:50.305Z,16.96
2022-10-27T19:12:17.504Z,16.94
2022-10-27T19:14:44.789Z,16.95
2022-10-27T19:17:13.442Z,16.91
2022-10-27T19:19:40.655Z,16.89
2022-10-27T19:22:07.883Z,16.85
2022-10-27T19:24:35.272Z,16.83
2022-10-27T19:27:02.556Z,16.79
2022-10-27T19:29:29.745Z,16.77
2022-10-27T19:31:57.030Z,16.74
2022-10-27T19:34:25.715Z,16.68
2022-10-27T19:36:52.934Z,16.64
2022-10-27T19:39:20.174Z,16.56
2022-10-27T19:41:47.427Z,16.55
2022-10-27T19:44:14.674Z,16.53
2022-10-27T19:46:41.866Z,16.53
2022-10-27T19:49:14.653Z,16.57
2022-10-27T19:51:43.540Z,16.57
2022-10-27T19:54:14.167Z,16.53
2022-10-27T19:56:43.247Z,16.50
2022-10-27T19:59:11.295Z,16.49
2022-10-27T20:01:38.829Z,16.44
2022-10-27T20:04:08.313Z,16.41
2022-10-27T20:06:35.567Z,16.38
2022-10-27T20:09:05.601Z,16.33
2022-10-27T20:11:34.301Z,16.29
2022-10-27T20:14:02.081Z,16.21
2022-10-27T20:16:32.049Z,16.16
2022-10-27T20:19:03.568Z,16.15
2022-10-27T20:21:31.190Z,16.12
2022-10-27T20:23:59.381Z,16.10
2022-10-27T20:26:29.325Z,16.10
2022-10-27T20:28:57.802Z,16.06
2022-10-27T20:31:25.165Z,16.10
2022-10-27T20:33:52.842Z,16.09
2022-10-27T20:36:20.109Z,16.08
2022-10-27T20:38:47.327Z,16.08
2022-10-27T20:41:16.884Z,16.07
2022-10-27T20:43:45.766Z,15.99
2022-10-27T20:46:14.804Z,15.99
2022-10-27T20:48:42.311Z,15.95
2022-10-27T20:51:11.898Z,15.94
2022-10-27T20:53:40.354Z,15.88
2022-10-27T20:56:13.388Z,15.93
2022-10-27T20:58:40.785Z,15.94
2022-10-27T21:01:17.266Z,16.03
2022-10-27T21:03:44.560Z,15.98
2022-10-27T21:06:11.961Z,16.05
2022-10-27T21:08:39.200Z,16.02
2022-10-27T21:11:06.501Z,16.05
2022-10-27T21:13:33.738Z,16.05
2022-10-27T21:16:01.104Z,16.08
2022-10-27T21:18:29.772Z,16.05
2022-10-27T21:20:57.006Z,16.10
2022-10-27T21:23:24.264Z,16.05
2022-10-27T21:25:51.656Z,16.08
2022-10-27T21:28:18.914Z,16.05
2022-10-27T21:30:46.122Z,16.08
2022-10-27T21:33:13.434Z,16.05
2022-10-27T21:35:48.590Z,15.99
2022-10-27T21:38:15.812Z,16.07
2022-10-27T21:40:43.058Z,16.01
2022-10-27T21:43:10.418Z,15.93
2022-10-27T21:45:37.633Z,15.87
2022-10-27T21:48:05.339Z,15.79
2022-10-27T21:50:32.746Z,15.79
2022-10-27T21:53:01.299Z,15.89
2022-10-27T21:55:28.578Z,15.80
2022-10-27T21:57:56.147Z,15.82
2022-10-27T22:00:23.393Z,15.78
2022-10-27T22:02:50.612Z,15.77
2022-10-27T22:05:17.907Z,15.77
2022-10-27T22:07:45.125Z,15.71
2022-10-27T22:10:13.840Z,15.70
2022-10-27T22:12:41.063Z,15.68
2022-10-27T22:15:09.389Z,15.67
2022-10-27T22:17:36.652Z,15.64
2022-10-27T22:20:04.217Z,15.61
2022-10-27T22:22:31.466Z,15.65
2022-10-27T22:24:58.727Z,15.62
2022-10-27T22:27:27.407Z,15.55
2022-10-27T22:29:54.628Z,15.55
2022-10-27T22:32:21.831Z,15.56
2022-10-27T22:34:49.170Z,15.58
2022-10-27T22:37:16.383Z,15.55
2022-10-27T22:39:43.616Z,15.60
2022-10-27T22:42:10.909Z,15.56
2022-10-27T22:44:39.659Z,15.60
2022-10-27T22:47:06.943Z,15.52
2022-10-27T22:49:34.286Z,15.44
2022-10-27T22:52:01.448Z,15.49
2022-10-27T22:54:28.695Z,15.52
2022-10-27T22:56:55.951Z,15.54
2022-10-27T22:59:23.119Z,15.53
2022-10-27T23:01:51.876Z,15.43
2022-10-27T23:04:19.167Z,15.42
2022-10-27T23:06:46.471Z,15.31
2022-10-27T23:09:15.768Z,15.31
2022-10-27T23:11:43.820Z,15.32
2022-10-27T23:14:12.916Z,15.28
2022-10-27T23:16:41.088Z,15.24
2022-10-27T23:19:09.905Z,15.22
2022-10-27T23:21:37.067Z,15.17
2022-10-27T23:24:05.081Z,15.12
2022-10-27T23:26:34.445Z,15.07
2022-10-27T23:29:04.488Z,15.03
2022-10-27T23:31:32.324Z,14.99
2022-10-27T23:34:01.059Z,14.96
2022-10-27T23:36:31.828Z,14.94
2022-10-27T23:39:00.036Z,14.95
2022-10-27T23:41:27.787Z,14.92
2022-10-27T23:43:57.234Z,14.90
2022-10-27T23:46:25.758Z,14.87
2022-10-27T23:48:53.106Z,14.85
2022-10-27T23:53:54.279Z,14.86
2022-10-27T23:56:21.776Z,14.93
2022-10-27T23:58:49.067Z,14.90
